Time;durP1;ratioP1;P1;durP2;ratioP2;P2;SDS_P1;SDS_P2;PMS_P1;PMS_P2;Temp;Humidity;BMP_temperature;BMP_pressure;BME280_temperature;BME280_humidity;BME280_pressure;Samples;Min_cycle;Max_cycle;Signal;HPM_P1;HPM_P2
2021/09/05 00:00:45;;;;;;;7.63;5.17;;;15.50;99.90;;;;;;5072766;28;20212;-57
2021/09/05 00:03:12;;;;;;;6.43;5.27;;;15.50;99.90;;;;;;5072857;28;20205;-57
2021/09/05 00:05:39;;;;;;;6.93;4.83;;;15.40;99.90;;;;;;5072423;28;20225;-56
2021/09/05 00:08:06;;;;;;;6.47;4.90;;;15.40;99.90;;;;;;5073316;28;20544;-57
2021/09/05 00:10:32;;;;;;;7.53;4.90;;;15.30;99.90;;;;;;5071962;28;20299;-57
2021/09/05 00:13:00;;;;;;;8.93;5.80;;;15.30;99.90;;;;;;5072640;28;20209;-57
2021/09/05 00:15:27;;;;;;;6.77;4.87;;;15.30;99.90;;;;;;5072379;28;20233;-57
2021/09/05 00:17:54;;;;;;;5.90;4.87;;;15.30;99.90;;;;;;5072164;28;20693;-57
2021/09/05 00:20:21;;;;;;;8.07;5.60;;;15.30;99.90;;;;;;5072515;28;20209;-57
2021/09/05 00:22:47;;;;;;;6.87;4.80;;;15.20;99.90;;;;;;5072393;28;20218;-57
2021/09/05 00:25:14;;;;;;;5.87;5.20;;;15.10;99.90;;;;;;5072235;28;20240;-57
2021/09/05 00:27:41;;;;;;;6.50;5.13;;;15.10;99.90;;;;;;5072267;28;20659;-57
2021/09/05 00:30:10;;;;;;;7.77;4.97;;;15.10;99.90;;;;;;5072156;28;20205;-57
2021/09/05 00:32:37;;;;;;;6.10;4.63;;;15.10;99.90;;;;;;5072033;28;20209;-57
2021/09/05 00:35:04;;;;;;;8.67;4.87;;;15.00;99.90;;;;;;5072126;28;20228;-57
2021/09/05 00:37:31;;;;;;;7.37;4.80;;;15.00;99.90;;;;;;5072142;28;20208;-57
2021/09/05 00:39:58;;;;;;;7.93;5.27;;;14.90;99.90;;;;;;5071797;28;20699;-57
2021/09/05 00:42:25;;;;;;;7.00;4.83;;;14.90;99.90;;;;;;5071925;28;20209;-57
2021/09/05 00:44:53;;;;;;;7.80;5.37;;;14.90;99.90;;;;;;5071667;28;20228;-57
2021/09/05 00:47:21;;;;;;;5.73;5.13;;;14.80;99.90;;;;;;5071776;28;20228;-57
2021/09/05 00:49:48;;;;;;;9.47;5.03;;;14.80;99.90;;;;;;5071885;28;20231;-57
2021/09/05 00:52:18;;;;;;;7.83;5.27;;;14.80;99.90;;;;;;5071734;28;20708;-56
2021/09/05 00:54:45;;;;;;;5.87;4.83;;;14.70;99.90;;;;;;5071693;28;20208;-57
2021/09/05 00:57:12;;;;;;;5.73;4.80;;;14.60;99.90;;;;;;5071760;28;20201;-57
2021/09/05 00:59:40;;;;;;;6.13;4.73;;;14.60;99.90;;;;;;5071435;28;20258;-60
2021/09/05 01:02:07;;;;;;;7.07;5.20;;;14.50;99.90;;;;;;5071025;28;20775;-63
2021/09/05 01:04:35;;;;;;;7.93;5.10;;;14.50;99.90;;;;;;5071755;28;20216;-62
2021/09/05 01:07:02;;;;;;;7.93;4.87;;;14.50;99.90;;;;;;5071426;28;20631;-58
2021/09/05 01:09:29;;;;;;;7.40;5.33;;;14.40;99.90;;;;;;5071350;28;20208;-57
2021/09/05 01:11:56;;;;;;;6.43;5.13;;;14.50;99.90;;;;;;5071336;28;20205;-56
2021/09/05 01:14:24;;;;;;;6.10;5.10;;;14.50;99.90;;;;;;5071104;28;20200;-57
2021/09/05 01:16:51;;;;;;;7.87;5.33;;;14.50;99.90;;;;;;5071358;28;20227;-56
2021/09/05 01:19:20;;;;;;;6.93;5.30;;;14.60;99.90;;;;;;5071211;28;20208;-56
2021/09/05 01:21:51;;;;;;;7.60;5.00;;;14.60;99.90;;;;;;5071103;28;20695;-58
2021/09/05 01:24:19;;;;;;;7.80;5.30;;;14.50;99.90;;;;;;5071286;28;20212;-57
2021/09/05 01:26:47;;;;;;;6.57;5.17;;;14.50;99.90;;;;;;5071106;28;20314;-57
2021/09/05 01:29:16;;;;;;;7.80;5.33;;;14.40;99.90;;;;;;5071260;28;20231;-56
2021/09/05 01:31:44;;;;;;;7.33;5.23;;;14.40;99.90;;;;;;5071198;28;20221;-57
2021/09/05 01:34:13;;;;;;;9.87;5.40;;;14.40;99.90;;;;;;5071210;28;20208;-58
2021/09/05 01:36:41;;;;;;;6.03;5.37;;;14.40;99.90;;;;;;5071020;28;20731;-58
2021/09/05 01:39:10;;;;;;;6.70;5.33;;;14.30;99.90;;;;;;5071027;28;20201;-59
2021/09/05 01:41:36;;;;;;;6.50;5.30;;;14.40;99.90;;;;;;5070945;28;20216;-58
2021/09/05 01:44:05;;;;;;;5.57;4.90;;;14.40;99.90;;;;;;5071053;28;20213;-58
2021/09/05 01:46:33;;;;;;;5.93;5.30;;;14.40;99.90;;;;;;5070916;28;20221;-57
2021/09/05 01:49:00;;;;;;;8.00;5.87;;;14.40;99.90;;;;;;5070856;28;20221;-58
2021/09/05 01:51:27;;;;;;;7.83;5.50;;;14.40;99.90;;;;;;5070956;28;20581;-56
2021/09/05 01:53:54;;;;;;;8.77;5.70;;;14.40;99.90;;;;;;5070800;28;20278;-57
2021/09/05 01:56:21;;;;;;;6.30;5.63;;;14.50;99.90;;;;;;5071007;28;20663;-56
2021/09/05 01:58:48;;;;;;;7.33;5.50;;;14.40;99.90;;;;;;5071012;28;20203;-57
2021/09/05 02:01:15;;;;;;;11.40;5.40;;;14.50;99.90;;;;;;5070674;28;20732;-57
2021/09/05 02:03:43;;;;;;;5.83;5.00;;;14.40;99.90;;;;;;5070660;28;20216;-58
2021/09/05 02:06:10;;;;;;;8.93;5.70;;;14.40;99.90;;;;;;5070625;28;20274;-57
2021/09/05 02:08:37;;;;;;;7.17;4.60;;;14.40;99.90;;;;;;5070532;28;20216;-57
2021/09/05 02:11:03;;;;;;;5.53;4.93;;;14.40;99.90;;;;;;5070862;28;20212;-57
2021/09/05 02:13:31;;;;;;;7.13;5.40;;;14.40;99.90;;;;;;5070721;28;20204;-57
2021/09/05 02:15:57;;;;;;;5.80;5.10;;;14.30;99.90;;;;;;5070718;28;20220;-57
2021/09/05 02:18:24;;;;;;;6.60;5.50;;;14.30;99.90;;;;;;5070507;28;20262;-56
2021/09/05 02:20:52;;;;;;;6.47;5.27;;;14.20;99.90;;;;;;5070574;28;20208;-57
2021/09/05 02:23:19;;;;;;;7.30;5.37;;;14.20;99.90;;;;;;5070496;28;20212;-57
2021/09/05 02:25:45;;;;;;;5.87;5.27;;;14.20;99.90;;;;;;5070311;28;20232;-57
2021/09/05 02:28:12;;;;;;;6.50;5.50;;;14.20;99.90;;;;;;5070442;28;20225;-57
2021/09/05 02:30:39;;;;;;;7.73;5.50;;;14.20;99.90;;;;;;5070496;28;20205;-57
2021/09/05 02:33:06;;;;;;;7.10;5.57;;;14.20;99.90;;;;;;5072288;28;20668;-57
2021/09/05 02:35:33;;;;;;;8.60;5.70;;;14.20;99.90;;;;;;5074104;28;20282;-58
2021/09/05 02:38:01;;;;;;;6.23;5.00;;;14.20;99.90;;;;;;5074397;28;20201;-58
2021/09/05 02:40:28;;;;;;;7.00;5.80;;;14.10;99.90;;;;;;5074219;28;20742;-58
2021/09/05 02:42:54;;;;;;;6.47;5.60;;;14.00;99.90;;;;;;5074264;28;20741;-58
2021/09/05 02:45:21;;;;;;;6.03;5.43;;;14.00;99.90;;;;;;5073868;28;20738;-58
2021/09/05 02:47:48;;;;;;;7.40;6.03;;;14.00;99.90;;;;;;5073902;28;20705;-58
2021/09/05 02:50:14;;;;;;;8.77;6.03;;;14.10;99.90;;;;;;5074379;28;20266;-57
2021/09/05 02:52:41;;;;;;;6.47;5.50;;;14.10;99.90;;;;;;5074329;28;20208;-58
2021/09/05 02:55:10;;;;;;;6.40;5.80;;;14.00;99.90;;;;;;5074015;28;20708;-58
2021/09/05 02:57:37;;;;;;;7.47;6.07;;;14.00;99.90;;;;;;5074147;28;20223;-57
2021/09/05 03:00:04;;;;;;;8.83;6.57;;;14.00;99.90;;;;;;5074216;28;20205;-57
2021/09/05 03:02:31;;;;;;;10.07;6.87;;;14.00;99.90;;;;;;5073826;28;20205;-57
2021/09/05 03:04:58;;;;;;;9.23;6.77;;;14.00;99.90;;;;;;5073454;28;20221;-58
2021/09/05 03:07:24;;;;;;;7.00;6.30;;;13.90;99.90;;;;;;5073602;28;20225;-58
2021/09/05 03:09:51;;;;;;;7.23;6.30;;;13.90;99.90;;;;;;5073719;28;20628;-58
2021/09/05 03:12:23;;;;;;;9.40;6.80;;;13.90;99.90;;;;;;5073619;28;20674;-58
2021/09/05 03:14:49;;;;;;;11.30;9.07;;;13.90;99.90;;;;;;5073592;28;20209;-57
2021/09/05 03:17:16;;;;;;;10.33;7.37;;;13.90;99.90;;;;;;5073489;28;20227;-58
2021/09/05 03:19:43;;;;;;;11.50;8.43;;;13.90;99.90;;;;;;5073423;28;20626;-57
2021/09/05 03:22:09;;;;;;;15.97;11.87;;;13.90;99.90;;;;;;5073483;28;20746;-58
2021/09/05 03:24:36;;;;;;;8.57;6.90;;;13.90;99.90;;;;;;5073554;28;20209;-57
2021/09/05 03:27:03;;;;;;;7.57;5.97;;;13.80;99.90;;;;;;5074310;28;20216;-58
2021/09/05 03:29:31;;;;;;;8.47;6.50;;;13.80;99.90;;;;;;5073278;28;20225;-57
2021/09/05 03:31:58;;;;;;;9.07;6.70;;;13.90;99.90;;;;;;5073406;28;20208;-58
2021/09/05 03:34:24;;;;;;;7.33;6.30;;;13.80;99.90;;;;;;5073397;28;20213;-58
2021/09/05 03:36:51;;;;;;;7.53;5.57;;;13.90;99.90;;;;;;5073055;28;20608;-58
2021/09/05 03:39:18;;;;;;;6.23;5.63;;;13.80;99.90;;;;;;5073183;28;20352;-57
2021/09/05 03:41:44;;;;;;;10.93;5.90;;;13.80;99.90;;;;;;5073305;28;20608;-58
2021/09/05 03:44:11;;;;;;;9.70;6.03;;;13.80;99.90;;;;;;5073441;28;20594;-58
2021/09/05 03:46:39;;;;;;;8.53;5.17;;;13.80;99.90;;;;;;5073850;28;20640;-58
2021/09/05 03:49:06;;;;;;;7.33;5.80;;;13.80;99.90;;;;;;5073202;28;20669;-58
2021/09/05 03:51:32;;;;;;;7.20;5.83;;;13.60;99.90;;;;;;5073366;28;20258;-58
2021/09/05 03:53:59;;;;;;;6.93;5.50;;;13.50;99.90;;;;;;5073433;28;20205;-58
2021/09/05 03:56:26;;;;;;;8.10;5.50;;;13.50;99.90;;;;;;5073279;28;20224;-58
2021/09/05 03:58:52;;;;;;;8.97;5.50;;;13.40;99.90;;;;;;5072761;28;20201;-58
2021/09/05 04:01:19;;;;;;;6.20;5.40;;;13.40;99.90;;;;;;5072862;28;20669;-58
2021/09/05 04:03:47;;;;;;;7.43;5.20;;;13.40;99.90;;;;;;5072574;28;20718;-58
2021/09/05 04:06:14;;;;;;;6.03;5.33;;;13.40;99.90;;;;;;5072749;28;20259;-57
2021/09/05 04:08:45;;;;;;;9.47;5.60;;;13.30;99.90;;;;;;5072711;28;20279;-58
2021/09/05 04:11:11;;;;;;;7.37;6.10;;;13.30;99.90;;;;;;5072811;28;20295;-57
2021/09/05 04:13:38;;;;;;;8.53;7.00;;;13.20;99.90;;;;;;5072317;28;20258;-57
2021/09/05 04:16:06;;;;;;;6.57;5.50;;;13.20;99.90;;;;;;5072557;28;20239;-57
2021/09/05 04:18:33;;;;;;;6.70;5.23;;;13.20;99.90;;;;;;5072262;28;20254;-57
2021/09/05 04:21:01;;;;;;;8.27;5.43;;;13.20;99.90;;;;;;5072591;28;20254;-57
2021/09/05 04:23:28;;;;;;;7.27;4.93;;;13.10;99.90;;;;;;5072099;28;20569;-57
2021/09/05 04:25:54;;;;;;;6.30;5.50;;;13.10;99.90;;;;;;5072238;28;20241;-58
2021/09/05 04:28:21;;;;;;;6.13;5.17;;;13.10;99.90;;;;;;5072452;28;20240;-58
2021/09/05 04:30:48;;;;;;;7.33;5.57;;;13.10;99.90;;;;;;5072436;28;20205;-58
2021/09/05 04:33:14;;;;;;;7.30;5.47;;;13.10;99.90;;;;;;5072392;28;20262;-57
2021/09/05 04:35:41;;;;;;;8.40;6.07;;;13.10;99.90;;;;;;5072325;28;20225;-58
2021/09/05 04:38:09;;;;;;;7.93;5.73;;;13.10;99.90;;;;;;5071905;28;20254;-58
2021/09/05 04:40:36;;;;;;;6.77;5.90;;;13.10;99.90;;;;;;5072082;28;20242;-58
2021/09/05 04:43:02;;;;;;;7.47;5.50;;;13.10;99.90;;;;;;5072173;28;20212;-58
2021/09/05 04:45:29;;;;;;;7.37;5.47;;;13.10;99.90;;;;;;5072170;28;20232;-58
2021/09/05 04:47:56;;;;;;;7.87;5.73;;;13.20;99.90;;;;;;5072038;28;20208;-57
2021/09/05 04:50:22;;;;;;;7.63;5.73;;;13.20;99.90;;;;;;5071938;28;20204;-58
2021/09/05 04:52:49;;;;;;;8.03;5.50;;;13.20;99.90;;;;;;5071818;28;20228;-60
2021/09/05 04:55:17;;;;;;;7.07;6.10;;;13.20;99.90;;;;;;5070743;28;20752;-58
2021/09/05 04:57:44;;;;;;;7.53;6.10;;;13.20;99.90;;;;;;5071620;28;20215;-57
2021/09/05 05:00:11;;;;;;;8.20;6.07;;;13.30;99.90;;;;;;5072012;28;20208;-58
2021/09/05 05:02:38;;;;;;;7.83;6.07;;;13.30;99.90;;;;;;5071673;28;20204;-57
2021/09/05 05:05:05;;;;;;;7.67;6.00;;;13.30;99.90;;;;;;5071571;28;20228;-58
2021/09/05 05:07:32;;;;;;;7.33;5.83;;;13.30;99.90;;;;;;5071685;28;20254;-57
2021/09/05 05:09:59;;;;;;;7.93;5.77;;;13.30;99.90;;;;;;5071181;28;20228;-57
2021/09/05 05:12:27;;;;;;;8.10;5.37;;;13.30;99.90;;;;;;5071391;28;20201;-57
2021/09/05 05:14:53;;;;;;;6.10;5.50;;;13.30;99.90;;;;;;5073107;28;20228;-58
2021/09/05 05:17:20;;;;;;;7.20;5.90;;;13.30;99.90;;;;;;5071739;28;20205;-58
2021/09/05 05:19:47;;;;;;;7.17;6.13;;;13.40;99.90;;;;;;5071376;28;20205;-58
2021/09/05 05:22:13;;;;;;;8.73;6.40;;;13.40;99.90;;;;;;5071432;28;20208;-58
2021/09/05 05:24:40;;;;;;;8.47;5.90;;;13.50;99.90;;;;;;5071551;28;20228;-58
2021/09/05 05:27:07;;;;;;;6.47;5.63;;;13.60;99.90;;;;;;5071724;28;20215;-56
2021/09/05 05:29:35;;;;;;;8.57;5.67;;;13.80;99.90;;;;;;5071347;28;20233;-57
2021/09/05 05:32:01;;;;;;;9.53;6.50;;;13.90;99.90;;;;;;5072313;28;20205;-58
2021/09/05 05:34:28;;;;;;;6.53;5.50;;;14.00;99.90;;;;;;5071615;28;20616;-57
2021/09/05 05:36:55;;;;;;;7.10;6.37;;;14.10;99.90;;;;;;5071144;28;20240;-56
2021/09/05 05:39:21;;;;;;;6.83;5.50;;;14.20;99.90;;;;;;5071128;28;20208;-58
2021/09/05 05:41:48;;;;;;;12.20;6.23;;;14.40;99.90;;;;;;5071265;28;20212;-58
2021/09/05 05:44:15;;;;;;;8.50;5.53;;;15.10;99.90;;;;;;5071236;28;20209;-56
2021/09/05 05:46:43;;;;;;;6.10;5.40;;;16.20;99.90;;;;;;5070944;28;20221;-58
2021/09/05 05:49:10;;;;;;;8.25;5.03;;;17.60;99.90;;;;;;5070783;28;20228;-58
2021/09/05 05:51:36;;;;;;;5.63;4.38;;;18.90;99.90;;;;;;5070794;28;20213;-58
2021/09/05 05:54:03;;;;;;;6.63;4.35;;;20.20;99.90;;;;;;5071013;28;20217;-57
2021/09/05 05:56:30;;;;;;;6.18;4.45;;;21.40;99.90;;;;;;5071045;28;20252;-58
2021/09/05 05:58:56;;;;;;;4.68;4.20;;;22.50;99.90;;;;;;5070728;28;20204;-58
2021/09/05 06:01:23;;;;;;;5.95;4.18;;;23.30;99.90;;;;;;5070926;28;20205;-58
2021/09/05 06:03:51;;;;;;;5.10;3.65;;;23.90;99.90;;;;;;5070584;28;20201;-58
2021/09/05 06:06:18;;;;;;;6.22;4.32;;;24.10;99.90;;;;;;5070809;28;20224;-57
2021/09/05 06:08:45;;;;;;;8.02;6.43;;;24.50;99.90;;;;;;5073929;28;20236;-58
2021/09/05 06:11:12;;;;;;;7.53;5.63;;;25.10;99.90;;;;;;5075174;28;20262;-58
2021/09/05 06:13:39;;;;;;;6.60;4.95;;;26.00;99.90;;;;;;5074694;28;20205;-58
2021/09/05 06:16:06;;;;;;;8.68;5.97;;;26.70;99.90;;;;;;5074875;28;20233;-57
2021/09/05 06:18:32;;;;;;;6.57;4.90;;;27.40;99.90;;;;;;5074570;28;20258;-57
2021/09/05 06:21:00;;;;;;;5.30;4.30;;;28.10;97.50;;;;;;5074828;28;20404;-58
2021/09/05 06:23:27;;;;;;;6.43;4.75;;;28.30;95.20;;;;;;5074782;28;20208;-57
2021/09/05 06:25:54;;;;;;;6.07;5.18;;;28.40;94.60;;;;;;5074517;28;20232;-58
2021/09/05 06:28:20;;;;;;;6.78;5.90;;;28.50;94.10;;;;;;5074485;28;20212;-58
2021/09/05 06:30:47;;;;;;;7.07;5.38;;;28.80;93.40;;;;;;5074761;28;20216;-58
2021/09/05 06:33:14;;;;;;;9.23;5.53;;;29.30;92.20;;;;;;5074370;28;20262;-58
2021/09/05 06:35:41;;;;;;;6.10;4.47;;;29.80;90.70;;;;;;5074346;28;20227;-58
2021/09/05 06:38:09;;;;;;;6.32;4.60;;;30.10;88.10;;;;;;5074536;28;20211;-57
2021/09/05 06:40:35;;;;;;;6.43;4.75;;;30.10;86.50;;;;;;5074416;28;20630;-57
2021/09/05 06:43:02;;;;;;;4.95;4.45;;;30.00;86.20;;;;;;5074268;28;20700;-58
2021/09/05 06:45:29;;;;;;;6.10;5.20;;;30.20;85.00;;;;;;5074039;28;20657;-57
2021/09/05 06:47:56;;;;;;;5.07;4.50;;;30.40;84.20;;;;;;5074014;28;20209;-57
2021/09/05 06:50:22;;;;;;;5.53;4.75;;;30.60;83.10;;;;;;5074506;28;20515;-58
2021/09/05 06:52:49;;;;;;;8.20;5.45;;;31.10;81.20;;;;;;5074247;28;20208;-58
2021/09/05 06:55:17;;;;;;;5.38;4.72;;;31.70;79.70;;;;;;5073861;28;20720;-58
2021/09/05 06:57:44;;;;;;;6.32;5.15;;;32.10;76.10;;;;;;5074193;28;20246;-59
2021/09/05 07:00:11;;;;;;;9.52;5.00;;;32.40;74.40;;;;;;5074116;28;20201;-58
2021/09/05 07:02:38;;;;;;;5.55;4.45;;;32.60;73.20;;;;;;5074235;28;20216;-55
2021/09/05 07:05:06;;;;;;;6.43;4.70;;;32.90;71.80;;;;;;5074219;28;20236;-57
2021/09/05 07:07:32;;;;;;;6.53;4.15;;;33.20;71.60;;;;;;5073970;28;20211;-55
2021/09/05 07:10:00;;;;;;;4.63;4.22;;;33.70;69.40;;;;;;5073727;28;20689;-57
2021/09/05 07:12:28;;;;;;;7.18;4.50;;;34.00;68.10;;;;;;5074049;28;20230;-57
2021/09/05 07:14:55;;;;;;;7.00;4.70;;;34.20;67.30;;;;;;5073534;28;20314;-58
2021/09/05 07:17:22;;;;;;;4.95;4.47;;;34.40;65.40;;;;;;5073878;28;20215;-57
2021/09/05 07:19:48;;;;;;;5.88;4.93;;;33.30;66.50;;;;;;5073247;28;20201;-55
2021/09/05 07:22:15;;;;;;;5.53;4.07;;;32.30;70.00;;;;;;5073512;28;20208;-57
2021/09/05 07:24:42;;;;;;;5.30;3.97;;;32.60;69.10;;;;;;5073447;28;20692;-58
2021/09/05 07:27:08;;;;;;;5.25;4.32;;;33.50;66.30;;;;;;5073718;28;20255;-57
2021/09/05 07:29:37;;;;;;;6.07;4.40;;;34.40;64.30;;;;;;5073474;28;20541;-56
2021/09/05 07:32:04;;;;;;;5.70;4.20;;;35.00;63.30;;;;;;5073671;28;20208;-58
2021/09/05 07:34:31;;;;;;;4.20;3.80;;;35.50;60.60;;;;;;5073616;28;20209;-56
2021/09/05 07:36:57;;;;;;;5.07;4.35;;;35.70;59.80;;;;;;5073335;28;20205;-58
2021/09/05 07:39:24;;;;;;;4.82;3.72;;;36.00;59.00;;;;;;5073426;28;20205;-56
2021/09/05 07:41:51;;;;;;;4.57;3.90;;;36.20;58.20;;;;;;5073409;28;20299;-57
2021/09/05 07:44:17;;;;;;;9.45;8.48;;;36.20;57.70;;;;;;5073266;28;20716;-56
2021/09/05 07:46:45;;;;;;;4.55;4.15;;;36.30;57.40;;;;;;5073008;28;20636;-56
2021/09/05 07:49:12;;;;;;;6.68;3.92;;;36.40;56.80;;;;;;5073007;28;20224;-57
2021/09/05 07:51:39;;;;;;;5.60;4.07;;;36.50;56.70;;;;;;5073364;28;20200;-55
2021/09/05 07:54:05;;;;;;;4.22;3.80;;;36.60;56.30;;;;;;5072824;28;20200;-56
2021/09/05 07:56:32;;;;;;;6.03;3.92;;;36.70;56.20;;;;;;5072786;28;20251;-56
2021/09/05 07:58:59;;;;;;;4.40;4.00;;;36.80;55.80;;;;;;5073079;28;20228;-56
2021/09/05 08:01:25;;;;;;;4.20;3.80;;;36.90;56.10;;;;;;5073034;28;20228;-56
2021/09/05 08:03:54;;;;;;;5.35;4.00;;;36.80;55.50;;;;;;5072826;28;20296;-58
2021/09/05 08:06:23;;;;;;;5.55;4.28;;;36.40;55.70;;;;;;5072688;28;20637;-56
2021/09/05 08:08:49;;;;;;;5.97;4.95;;;35.70;56.50;;;;;;5073268;28;20201;-55
2021/09/05 08:11:16;;;;;;;5.32;4.82;;;34.40;59.30;;;;;;5073157;28;20452;-57
2021/09/05 08:13:43;;;;;;;4.75;4.25;;;33.00;62.10;;;;;;5072715;28;20567;-57
2021/09/05 08:16:10;;;;;;;5.45;4.63;;;31.60;65.50;;;;;;5072722;28;20229;-54
2021/09/05 08:18:38;;;;;;;7.18;5.22;;;30.40;68.60;;;;;;5072489;28;20205;-57
2021/09/05 08:21:08;;;;;;;5.32;4.80;;;29.40;71.70;;;;;;5072491;28;20205;-56
2021/09/05 08:23:36;;;;;;;5.63;5.07;;;28.60;75.00;;;;;;5072133;28;20575;-58
2021/09/05 08:26:04;;;;;;;6.18;4.90;;;27.80;77.30;;;;;;5072557;28;20244;-63
2021/09/05 08:28:31;;;;;;;5.10;4.60;;;26.40;83.40;;;;;;5072206;28;20209;-64
2021/09/05 08:30:58;;;;;;;7.00;5.13;;;25.20;89.50;;;;;;5071712;28;20651;-64
2021/09/05 08:33:25;;;;;;;7.40;5.03;;;24.60;91.70;;;;;;5072609;28;20673;-64
2021/09/05 08:35:53;;;;;;;7.93;4.57;;;24.20;92.00;;;;;;5072015;28;20221;-63
2021/09/05 08:38:21;;;;;;;7.78;4.85;;;24.20;91.90;;;;;;5072113;28;20648;-62
2021/09/05 08:40:49;;;;;;;4.53;4.13;;;24.10;92.20;;;;;;5072159;28;20212;-64
2021/09/05 08:43:18;;;;;;;5.28;4.15;;;24.00;91.80;;;;;;5072288;28;20204;-62
2021/09/05 08:45:45;;;;;;;4.95;4.07;;;23.80;91.80;;;;;;5071776;28;20735;-62
2021/09/05 08:48:14;;;;;;;5.03;3.95;;;23.80;92.20;;;;;;5072204;28;20250;-63
2021/09/05 08:50:41;;;;;;;4.05;3.65;;;23.70;92.00;;;;;;5071988;28;20229;-63
2021/09/05 08:53:07;;;;;;;6.72;3.90;;;23.70;92.50;;;;;;5072127;28;20212;-62
2021/09/05 08:55:36;;;;;;;5.70;3.85;;;23.60;92.60;;;;;;5071920;28;20225;-62
2021/09/05 08:58:03;;;;;;;4.88;4.00;;;23.60;93.10;;;;;;5071805;28;20696;-63
2021/09/05 09:00:29;;;;;;;6.95;3.88;;;23.70;93.20;;;;;;5071750;28;20692;-63
2021/09/05 09:02:58;;;;;;;6.57;4.20;;;23.80;93.10;;;;;;5072067;28;20201;-65
2021/09/05 09:05:33;;;;;;;4.18;3.60;;;23.80;93.60;;;;;;5072024;28;20260;-64
2021/09/05 09:08:02;;;;;;;5.53;4.07;;;23.80;93.30;;;;;;5071890;28;20207;-64
2021/09/05 09:10:29;;;;;;;4.38;3.83;;;23.90;93.50;;;;;;5072154;28;20231;-63
2021/09/05 09:12:57;;;;;;;4.28;3.78;;;23.90;93.50;;;;;;5072041;28;20208;-64
2021/09/05 09:15:26;;;;;;;5.03;4.35;;;24.00;94.00;;;;;;5072058;28;20221;-64
2021/09/05 09:17:56;;;;;;;6.35;4.03;;;24.10;94.40;;;;;;5072108;28;20376;-63
2021/09/05 09:20:34;;;;;;;5.22;4.15;;;24.20;94.60;;;;;;5072330;28;20201;-63
2021/09/05 09:23:06;;;;;;;6.22;4.05;;;24.30;94.70;;;;;;5072384;28;20208;-64
2021/09/05 09:25:32;;;;;;;5.60;4.38;;;24.30;94.00;;;;;;5096263;22;20225;-62
2021/09/05 09:28:00;;;;;;;4.28;3.78;;;24.40;94.00;;;;;;5072356;28;20208;-62
2021/09/05 09:30:34;;;;;;;4.55;3.92;;;24.40;93.20;;;;;;5072425;28;20224;-62
2021/09/05 09:33:01;;;;;;;7.43;3.70;;;24.40;92.90;;;;;;5072483;28;20244;-62
2021/09/05 09:35:47;;;;;;;4.47;3.90;;;24.50;93.10;;;;;;5072129;28;20315;-65
2021/09/05 09:38:14;;;;;;;7.20;3.88;;;24.50;92.70;;;;;;5072289;28;20312;-63
2021/09/05 09:40:41;;;;;;;3.95;3.53;;;24.60;92.50;;;;;;5070018;28;20673;-63
2021/09/05 09:43:18;;;;;;;4.63;3.88;;;24.60;92.20;;;;;;5071409;28;20654;-63
2021/09/05 09:45:45;;;;;;;7.05;3.70;;;24.70;92.40;;;;;;5072026;28;20229;-64
2021/09/05 09:48:12;;;;;;;3.35;3.05;;;24.80;91.60;;;;;;5071442;28;20213;-64
2021/09/05 09:50:42;;;;;;;4.45;3.67;;;24.90;91.30;;;;;;5070608;28;20221;-62
2021/09/05 09:53:09;;;;;;;7.40;3.53;;;25.00;91.00;;;;;;5065338;28;20212;-62
2021/09/05 09:55:39;;;;;;;3.63;3.30;;;25.00;90.70;;;;;;5071182;28;20228;-64
2021/09/05 09:58:06;;;;;;;3.85;3.28;;;25.10;90.70;;;;;;5070937;28;20672;-60
2021/09/05 10:00:34;;;;;;;5.93;3.38;;;25.10;90.20;;;;;;5071501;28;20204;-62
2021/09/05 10:03:02;;;;;;;4.32;3.80;;;25.20;90.00;;;;;;5071524;28;20557;-61
2021/09/05 10:05:29;;;;;;;6.43;3.58;;;25.20;89.70;;;;;;5071277;28;20278;-64
2021/09/05 10:07:57;;;;;;;3.90;3.50;;;25.30;89.00;;;;;;5071560;28;20571;-60
2021/09/05 10:10:24;;;;;;;7.93;3.30;;;25.40;88.50;;;;;;5071297;28;20225;-59
2021/09/05 10:12:53;;;;;;;7.07;3.45;;;25.50;87.10;;;;;;5070605;28;20295;-60
2021/09/05 10:15:21;;;;;;;5.97;3.35;;;25.60;84.20;;;;;;5070901;28;20384;-60
2021/09/05 10:17:49;;;;;;;4.05;3.20;;;25.60;83.00;;;;;;5070813;28;20205;-62
2021/09/05 10:20:17;;;;;;;3.67;3.25;;;25.60;84.60;;;;;;5070755;28;20352;-59
2021/09/05 10:22:45;;;;;;;4.43;3.65;;;25.80;84.40;;;;;;5070947;28;20258;-60
2021/09/05 10:25:14;;;;;;;3.95;3.40;;;25.80;85.30;;;;;;5070608;28;20204;-62
2021/09/05 10:27:47;;;;;;;8.38;3.35;;;25.80;82.20;;;;;;5070806;28;20209;-60
2021/09/05 10:30:16;;;;;;;3.83;3.28;;;25.90;83.50;;;;;;5070624;28;20235;-61
2021/09/05 10:32:52;;;;;;;4.38;3.60;;;26.00;81.70;;;;;;5070644;28;20205;-61
2021/09/05 10:35:46;;;;;;;3.97;3.22;;;26.00;79.10;;;;;;5070847;28;20220;-60
2021/09/05 10:38:22;;;;;;;4.00;3.22;;;26.00;77.20;;;;;;5068598;28;20240;-60
2021/09/05 10:40:52;;;;;;;4.28;3.30;;;26.00;75.90;;;;;;5070779;28;20292;-61
2021/09/05 10:43:20;;;;;;;3.67;3.00;;;26.10;75.30;;;;;;5071286;28;20205;-61
2021/09/05 10:45:49;;;;;;;6.15;3.20;;;26.20;75.50;;;;;;5070738;28;20259;-61
2021/09/05 10:48:32;;;;;;;3.90;3.38;;;26.20;76.00;;;;;;5070290;28;20205;-61
2021/09/05 10:51:17;;;;;;;4.35;3.28;;;26.20;77.40;;;;;;5070657;28;20307;-61
2021/09/05 10:53:50;;;;;;;4.03;3.22;;;26.30;76.80;;;;;;5072144;28;20310;-60
2021/09/05 10:56:19;;;;;;;3.83;3.28;;;26.40;75.30;;;;;;5074335;28;20248;-61
2021/09/05 10:58:53;;;;;;;4.25;3.03;;;26.40;75.20;;;;;;5074344;28;20216;-61
2021/09/05 11:01:22;;;;;;;4.28;3.47;;;26.40;76.50;;;;;;5074584;28;20200;-61
2021/09/05 11:04:22;;;;;;;3.65;3.25;;;26.70;76.70;;;;;;5074334;28;20200;-61
2021/09/05 11:06:50;;;;;;;3.78;3.30;;;26.90;76.20;;;;;;5074578;28;20220;-61
2021/09/05 11:09:43;;;;;;;7.10;6.35;;;26.90;76.40;;;;;;5074320;28;20278;-61
2021/09/05 11:12:12;;;;;;;4.20;3.50;;;26.90;75.90;;;;;;5074055;28;20212;-61
2021/09/05 11:14:55;;;;;;;3.88;3.45;;;27.00;76.00;;;;;;5074080;28;20204;-61
2021/09/05 11:17:23;;;;;;;3.80;3.40;;;27.00;75.80;;;;;;5074039;28;20209;-61
2021/09/05 11:19:53;;;;;;;4.95;4.30;;;26.90;75.00;;;;;;5073971;28;20208;-60
2021/09/05 11:22:22;;;;;;;4.72;4.20;;;26.90;75.90;;;;;;5074401;28;20209;-60
2021/09/05 11:25:10;;;;;;;4.30;3.50;;;27.00;75.70;;;;;;5073687;28;20621;-61
2021/09/05 11:27:37;;;;;;;3.90;3.47;;;27.00;76.00;;;;;;5074931;28;20208;-60
2021/09/05 11:30:06;;;;;;;4.00;3.50;;;27.00;75.00;;;;;;5074719;28;20225;-61
2021/09/05 11:32:33;;;;;;;5.03;3.55;;;27.20;75.50;;;;;;5073882;28;20574;-59
2021/09/05 11:35:01;;;;;;;3.75;3.38;;;27.30;74.80;;;;;;5073411;28;20290;-60
2021/09/05 11:37:29;;;;;;;3.50;3.20;;;27.50;74.30;;;;;;5073618;28;20208;-59
2021/09/05 11:39:56;;;;;;;4.57;3.25;;;27.40;74.00;;;;;;5073618;28;20228;-60
2021/09/05 11:42:23;;;;;;;4.13;3.08;;;27.40;73.30;;;;;;5073615;28;20205;-60
2021/09/05 11:44:50;;;;;;;6.82;3.40;;;27.40;72.20;;;;;;5073233;28;20204;-59
2021/09/05 11:47:18;;;;;;;4.45;3.20;;;27.20;71.70;;;;;;5073245;28;20291;-59
2021/09/05 11:49:48;;;;;;;3.55;3.15;;;27.30;71.60;;;;;;5072939;28;20262;-59
2021/09/05 11:52:20;;;;;;;3.45;3.15;;;27.30;70.60;;;;;;5073621;28;20302;-59
2021/09/05 11:54:48;;;;;;;3.75;3.38;;;27.40;70.30;;;;;;5073910;28;20291;-59
2021/09/05 11:57:15;;;;;;;3.97;3.22;;;27.40;67.50;;;;;;5073637;28;20267;-59
2021/09/05 11:59:42;;;;;;;5.25;3.40;;;27.30;65.80;;;;;;5073224;28;20586;-61
2021/09/05 12:02:09;;;;;;;3.58;3.00;;;27.30;66.30;;;;;;5072718;28;20205;-61
2021/09/05 12:04:36;;;;;;;3.67;3.38;;;27.30;67.00;;;;;;5071896;28;20212;-63
2021/09/05 12:07:04;;;;;;;3.88;3.33;;;27.20;66.50;;;;;;5072653;28;20579;-61
2021/09/05 12:09:33;;;;;;;4.97;3.10;;;27.30;65.80;;;;;;5072547;28;20204;-60
2021/09/05 12:12:03;;;;;;;3.58;3.03;;;27.40;65.80;;;;;;5072954;28;20228;-61
2021/09/05 12:14:31;;;;;;;3.42;2.92;;;27.50;65.20;;;;;;5072594;28;20205;-60
2021/09/05 12:16:58;;;;;;;3.78;2.88;;;27.50;64.50;;;;;;5072619;28;20256;-60
2021/09/05 12:19:25;;;;;;;3.17;2.88;;;27.60;63.80;;;;;;5072331;28;20213;-60
2021/09/05 12:21:59;;;;;;;3.50;2.88;;;27.70;64.40;;;;;;5073564;28;20618;-60
2021/09/05 12:24:25;;;;;;;5.38;3.35;;;27.70;64.00;;;;;;5073443;28;20217;-61
2021/09/05 12:26:53;;;;;;;3.70;3.05;;;27.80;63.90;;;;;;5073381;28;20238;-60
2021/09/05 12:29:29;;;;;;;3.42;3.00;;;28.00;62.50;;;;;;5073496;28;20205;-60
2021/09/05 12:32:01;;;;;;;4.45;3.10;;;28.00;61.00;;;;;;5072803;28;20224;-60
2021/09/05 12:34:41;;;;;;;3.85;2.80;;;28.00;62.40;;;;;;5072346;28;20212;-60
2021/09/05 12:37:13;;;;;;;2.90;2.60;;;28.00;60.30;;;;;;5072575;28;20312;-60
2021/09/05 12:39:41;;;;;;;3.65;2.83;;;28.00;60.70;;;;;;5072181;28;20274;-59
2021/09/05 12:42:10;;;;;;;7.05;3.50;;;28.10;60.10;;;;;;5072167;28;20204;-61
2021/09/05 12:44:42;;;;;;;4.22;3.50;;;28.20;61.70;;;;;;5072181;28;20215;-60
2021/09/05 12:47:09;;;;;;;3.22;2.92;;;28.20;63.10;;;;;;5072269;28;20708;-61
2021/09/05 12:49:40;;;;;;;4.18;3.28;;;28.20;63.70;;;;;;5071726;28;20204;-61